sensor_id;sensor_type;location;lat;lon;timestamp;P1;durP1;ratioP1;P2;durP2;ratioP2
78120;SDS011;67585;44.802;10.332;2023-05-20T00:02:14;10.20;;;3.42;;
78120;SDS011;67585;44.802;10.332;2023-05-20T00:04:40;9.68;;;3.08;;
78120;SDS011;67585;44.802;10.332;2023-05-20T00:07:06;8.95;;;2.88;;
78120;SDS011;67585;44.802;10.332;2023-05-20T00:09:31;8.82;;;3.28;;
78120;SDS011;67585;44.802;10.332;2023-05-20T00:11:56;11.15;;;3.10;;
78120;SDS011;67585;44.802;10.332;2023-05-20T00:14:22;9.45;;;2.60;;
78120;SDS011;67585;44.802;10.332;2023-05-20T00:16:47;8.88;;;3.45;;
78120;SDS011;67585;44.802;10.332;2023-05-20T00:19:12;8.82;;;2.67;;
78120;SDS011;67585;44.802;10.332;2023-05-20T00:21:38;13.10;;;3.55;;
78120;SDS011;67585;44.802;10.332;2023-05-20T00:24:03;8.13;;;2.95;;
78120;SDS011;67585;44.802;10.332;2023-05-20T00:26:29;11.30;;;3.00;;
78120;SDS011;67585;44.802;10.332;2023-05-20T00:28:54;9.60;;;3.90;;
78120;SDS011;67585;44.802;10.332;2023-05-20T00:31:20;9.60;;;3.75;;
78120;SDS011;67585;44.802;10.332;2023-05-20T00:33:45;9.48;;;3.90;;
78120;SDS011;67585;44.802;10.332;2023-05-20T00:36:11;10.43;;;3.30;;
78120;SDS011;67585;44.802;10.332;2023-05-20T00:38:36;9.25;;;3.67;;
78120;SDS011;67585;44.802;10.332;2023-05-20T00:41:01;11.45;;;4.80;;
78120;SDS011;67585;44.802;10.332;2023-05-20T00:43:27;10.40;;;3.35;;
78120;SDS011;67585;44.802;10.332;2023-05-20T00:45:52;10.88;;;3.53;;
78120;SDS011;67585;44.802;10.332;2023-05-20T00:48:18;11.43;;;4.05;;
78120;SDS011;67585;44.802;10.332;2023-05-20T00:50:45;10.25;;;3.63;;
78120;SDS011;67585;44.802;10.332;2023-05-20T00:53:12;10.45;;;3.75;;
78120;SDS011;67585;44.802;10.332;2023-05-20T00:55:39;9.27;;;3.40;;
78120;SDS011;67585;44.802;10.332;2023-05-20T00:58:04;10.52;;;3.65;;
78120;SDS011;67585;44.802;10.332;2023-05-20T01:00:30;16.08;;;5.00;;
78120;SDS011;67585;44.802;10.332;2023-05-20T01:02:55;9.57;;;3.83;;
78120;SDS011;67585;44.802;10.332;2023-05-20T01:05:21;10.73;;;4.40;;
78120;SDS011;67585;44.802;10.332;2023-05-20T01:07:46;11.23;;;3.50;;
78120;SDS011;67585;44.802;10.332;2023-05-20T01:10:12;11.75;;;4.80;;
78120;SDS011;67585;44.802;10.332;2023-05-20T01:12:45;12.77;;;4.20;;
78120;SDS011;67585;44.802;10.332;2023-05-20T01:15:15;11.48;;;4.32;;
78120;SDS011;67585;44.802;10.332;2023-05-20T01:17:43;11.52;;;4.50;;
78120;SDS011;67585;44.802;10.332;2023-05-20T01:20:10;8.65;;;3.92;;
78120;SDS011;67585;44.802;10.332;2023-05-20T01:22:45;10.85;;;4.00;;
78120;SDS011;67585;44.802;10.332;2023-05-20T01:25:11;11.55;;;4.30;;
78120;SDS011;67585;44.802;10.332;2023-05-20T01:27:36;11.75;;;4.68;;
78120;SDS011;67585;44.802;10.332;2023-05-20T01:30:02;11.40;;;4.97;;
78120;SDS011;67585;44.802;10.332;2023-05-20T01:32:31;9.52;;;3.63;;
78120;SDS011;67585;44.802;10.332;2023-05-20T01:35:01;11.38;;;4.40;;
78120;SDS011;67585;44.802;10.332;2023-05-20T01:37:27;12.13;;;3.67;;
78120;SDS011;67585;44.802;10.332;2023-05-20T01:39:55;9.30;;;4.03;;
78120;SDS011;67585;44.802;10.332;2023-05-20T01:42:21;10.40;;;3.92;;
78120;SDS011;67585;44.802;10.332;2023-05-20T01:44:47;12.00;;;5.47;;
78120;SDS011;67585;44.802;10.332;2023-05-20T01:47:13;13.05;;;4.75;;
78120;SDS011;67585;44.802;10.332;2023-05-20T01:49:38;12.07;;;5.00;;
78120;SDS011;67585;44.802;10.332;2023-05-20T01:52:04;12.57;;;4.55;;
78120;SDS011;67585;44.802;10.332;2023-05-20T01:54:29;14.23;;;4.40;;
78120;SDS011;67585;44.802;10.332;2023-05-20T01:56:55;9.15;;;4.22;;
78120;SDS011;67585;44.802;10.332;2023-05-20T01:59:20;9.75;;;4.28;;
78120;SDS011;67585;44.802;10.332;2023-05-20T02:01:46;10.85;;;3.97;;
78120;SDS011;67585;44.802;10.332;2023-05-20T02:04:11;12.40;;;4.95;;
78120;SDS011;67585;44.802;10.332;2023-05-20T02:06:36;9.20;;;3.80;;
78120;SDS011;67585;44.802;10.332;2023-05-20T02:09:02;11.35;;;4.65;;
78120;SDS011;67585;44.802;10.332;2023-05-20T02:11:27;10.90;;;4.55;;
78120;SDS011;67585;44.802;10.332;2023-05-20T02:13:53;12.13;;;3.90;;
78120;SDS011;67585;44.802;10.332;2023-05-20T02:16:18;11.38;;;4.78;;
78120;SDS011;67585;44.802;10.332;2023-05-20T02:18:44;10.48;;;4.53;;
78120;SDS011;67585;44.802;10.332;2023-05-20T02:21:09;14.57;;;5.90;;
78120;SDS011;67585;44.802;10.332;2023-05-20T02:23:34;10.25;;;4.93;;
78120;SDS011;67585;44.802;10.332;2023-05-20T02:26:00;10.30;;;4.57;;
78120;SDS011;67585;44.802;10.332;2023-05-20T02:28:26;11.27;;;4.35;;
78120;SDS011;67585;44.802;10.332;2023-05-20T02:30:51;9.73;;;4.75;;
78120;SDS011;67585;44.802;10.332;2023-05-20T02:33:17;14.82;;;4.40;;
78120;SDS011;67585;44.802;10.332;2023-05-20T02:35:45;13.07;;;4.90;;
78120;SDS011;67585;44.802;10.332;2023-05-20T02:38:11;13.45;;;5.75;;
78120;SDS011;67585;44.802;10.332;2023-05-20T02:40:37;13.05;;;5.05;;
78120;SDS011;67585;44.802;10.332;2023-05-20T02:43:02;13.40;;;5.78;;
78120;SDS011;67585;44.802;10.332;2023-05-20T02:45:28;13.43;;;5.07;;
78120;SDS011;67585;44.802;10.332;2023-05-20T02:47:53;11.35;;;5.22;;
78120;SDS011;67585;44.802;10.332;2023-05-20T02:50:18;12.52;;;4.72;;
78120;SDS011;67585;44.802;10.332;2023-05-20T02:52:44;12.57;;;4.97;;
78120;SDS011;67585;44.802;10.332;2023-05-20T02:55:10;10.85;;;4.22;;
78120;SDS011;67585;44.802;10.332;2023-05-20T02:57:36;16.15;;;5.60;;
78120;SDS011;67585;44.802;10.332;2023-05-20T03:00:04;11.32;;;4.85;;
78120;SDS011;67585;44.802;10.332;2023-05-20T03:02:37;14.80;;;5.35;;
78120;SDS011;67585;44.802;10.332;2023-05-20T03:05:02;11.05;;;4.60;;
78120;SDS011;67585;44.802;10.332;2023-05-20T03:07:29;9.70;;;4.30;;
78120;SDS011;67585;44.802;10.332;2023-05-20T03:09:55;10.32;;;4.20;;
78120;SDS011;67585;44.802;10.332;2023-05-20T03:12:23;9.93;;;4.10;;
78120;SDS011;67585;44.802;10.332;2023-05-20T03:14:50;10.90;;;4.57;;
78120;SDS011;67585;44.802;10.332;2023-05-20T03:17:19;10.43;;;4.03;;
78120;SDS011;67585;44.802;10.332;2023-05-20T03:19:47;9.98;;;4.85;;
78120;SDS011;67585;44.802;10.332;2023-05-20T03:22:12;9.70;;;4.47;;
78120;SDS011;67585;44.802;10.332;2023-05-20T03:24:38;9.60;;;4.18;;
78120;SDS011;67585;44.802;10.332;2023-05-20T03:27:04;11.00;;;4.13;;
78120;SDS011;67585;44.802;10.332;2023-05-20T03:29:30;13.20;;;4.70;;
78120;SDS011;67585;44.802;10.332;2023-05-20T03:31:57;9.18;;;4.07;;
78120;SDS011;67585;44.802;10.332;2023-05-20T03:34:23;9.75;;;4.95;;
78120;SDS011;67585;44.802;10.332;2023-05-20T03:36:49;9.93;;;5.78;;
78120;SDS011;67585;44.802;10.332;2023-05-20T03:39:15;10.80;;;4.63;;
78120;SDS011;67585;44.802;10.332;2023-05-20T03:41:40;14.02;;;6.13;;
78120;SDS011;67585;44.802;10.332;2023-05-20T03:44:06;11.48;;;5.70;;
78120;SDS011;67585;44.802;10.332;2023-05-20T03:46:31;14.75;;;6.78;;
78120;SDS011;67585;44.802;10.332;2023-05-20T03:48:58;13.85;;;7.97;;
78120;SDS011;67585;44.802;10.332;2023-05-20T03:51:24;12.23;;;5.57;;
78120;SDS011;67585;44.802;10.332;2023-05-20T03:53:49;14.07;;;8.05;;
78120;SDS011;67585;44.802;10.332;2023-05-20T03:56:15;13.45;;;6.90;;
78120;SDS011;67585;44.802;10.332;2023-05-20T03:58:41;14.40;;;6.78;;
78120;SDS011;67585;44.802;10.332;2023-05-20T04:01:06;13.00;;;6.50;;
78120;SDS011;67585;44.802;10.332;2023-05-20T04:03:32;15.30;;;5.70;;
78120;SDS011;67585;44.802;10.332;2023-05-20T04:05:58;16.77;;;7.88;;
78120;SDS011;67585;44.802;10.332;2023-05-20T04:08:23;12.13;;;5.93;;
78120;SDS011;67585;44.802;10.332;2023-05-20T04:10:50;13.48;;;6.32;;
78120;SDS011;67585;44.802;10.332;2023-05-20T04:13:19;16.40;;;6.63;;
78120;SDS011;67585;44.802;10.332;2023-05-20T04:15:44;14.43;;;6.20;;
78120;SDS011;67585;44.802;10.332;2023-05-20T04:18:11;15.70;;;7.75;;
78120;SDS011;67585;44.802;10.332;2023-05-20T04:20:37;13.73;;;6.30;;
78120;SDS011;67585;44.802;10.332;2023-05-20T04:23:02;16.05;;;6.70;;
78120;SDS011;67585;44.802;10.332;2023-05-20T04:25:27;16.20;;;6.70;;
78120;SDS011;67585;44.802;10.332;2023-05-20T04:27:53;15.15;;;6.30;;
78120;SDS011;67585;44.802;10.332;2023-05-20T04:30:18;18.05;;;6.60;;
78120;SDS011;67585;44.802;10.332;2023-05-20T04:32:46;16.15;;;6.53;;
78120;SDS011;67585;44.802;10.332;2023-05-20T04:35:12;14.15;;;5.88;;
78120;SDS011;67585;44.802;10.332;2023-05-20T04:37:38;14.32;;;6.03;;
78120;SDS011;67585;44.802;10.332;2023-05-20T04:40:04;13.68;;;6.22;;
78120;SDS011;67585;44.802;10.332;2023-05-20T04:42:31;15.90;;;7.03;;
78120;SDS011;67585;44.802;10.332;2023-05-20T04:47:26;17.50;;;6.65;;
78120;SDS011;67585;44.802;10.332;2023-05-20T04:49:53;18.27;;;7.05;;
78120;SDS011;67585;44.802;10.332;2023-05-20T04:52:21;16.50;;;7.10;;
78120;SDS011;67585;44.802;10.332;2023-05-20T04:54:50;15.98;;;6.97;;
78120;SDS011;67585;44.802;10.332;2023-05-20T04:57:16;17.95;;;7.07;;
78120;SDS011;67585;44.802;10.332;2023-05-20T04:59:45;18.98;;;8.27;;
78120;SDS011;67585;44.802;10.332;2023-05-20T05:02:13;17.98;;;7.60;;
78120;SDS011;67585;44.802;10.332;2023-05-20T05:04:38;17.40;;;7.05;;
78120;SDS011;67585;44.802;10.332;2023-05-20T05:07:04;16.08;;;7.65;;
78120;SDS011;67585;44.802;10.332;2023-05-20T05:09:29;18.90;;;7.93;;
78120;SDS011;67585;44.802;10.332;2023-05-20T05:11:55;17.38;;;6.25;;
78120;SDS011;67585;44.802;10.332;2023-05-20T05:14:20;16.60;;;8.27;;
78120;SDS011;67585;44.802;10.332;2023-05-20T05:16:46;18.90;;;7.93;;
78120;SDS011;67585;44.802;10.332;2023-05-20T05:19:11;17.88;;;7.82;;
78120;SDS011;67585;44.802;10.332;2023-05-20T05:21:37;20.23;;;7.60;;
78120;SDS011;67585;44.802;10.332;2023-05-20T05:24:03;19.30;;;8.35;;
78120;SDS011;67585;44.802;10.332;2023-05-20T05:26:28;17.00;;;7.10;;
78120;SDS011;67585;44.802;10.332;2023-05-20T05:28:53;23.05;;;8.85;;
78120;SDS011;67585;44.802;10.332;2023-05-20T05:31:19;24.05;;;9.15;;
78120;SDS011;67585;44.802;10.332;2023-05-20T05:33:44;19.10;;;9.07;;
78120;SDS011;67585;44.802;10.332;2023-05-20T05:36:10;20.13;;;8.05;;
78120;SDS011;67585;44.802;10.332;2023-05-20T05:38:35;17.90;;;7.80;;
78120;SDS011;67585;44.802;10.332;2023-05-20T05:41:01;19.83;;;8.43;;
78120;SDS011;67585;44.802;10.332;2023-05-20T05:43:26;17.23;;;7.22;;
78120;SDS011;67585;44.802;10.332;2023-05-20T05:45:51;19.60;;;8.30;;
78120;SDS011;67585;44.802;10.332;2023-05-20T05:48:17;18.20;;;8.00;;
78120;SDS011;67585;44.802;10.332;2023-05-20T05:50:43;20.70;;;7.93;;
78120;SDS011;67585;44.802;10.332;2023-05-20T05:53:09;21.08;;;8.70;;
78120;SDS011;67585;44.802;10.332;2023-05-20T05:55:35;19.13;;;9.02;;
78120;SDS011;67585;44.802;10.332;2023-05-20T05:58:00;19.17;;;8.50;;
78120;SDS011;67585;44.802;10.332;2023-05-20T06:00:26;18.65;;;9.02;;
78120;SDS011;67585;44.802;10.332;2023-05-20T06:02:51;19.90;;;8.15;;
78120;SDS011;67585;44.802;10.332;2023-05-20T06:05:17;19.95;;;8.55;;
78120;SDS011;67585;44.802;10.332;2023-05-20T06:07:42;23.00;;;8.50;;
78120;SDS011;67585;44.802;10.332;2023-05-20T06:10:08;22.85;;;8.68;;
78120;SDS011;67585;44.802;10.332;2023-05-20T06:12:33;20.63;;;10.55;;
78120;SDS011;67585;44.802;10.332;2023-05-20T06:14:59;20.52;;;8.77;;
78120;SDS011;67585;44.802;10.332;2023-05-20T06:17:24;19.83;;;9.15;;
78120;SDS011;67585;44.802;10.332;2023-05-20T06:19:50;21.15;;;9.18;;
78120;SDS011;67585;44.802;10.332;2023-05-20T06:22:15;19.65;;;8.30;;
78120;SDS011;67585;44.802;10.332;2023-05-20T06:24:41;18.98;;;8.30;;
78120;SDS011;67585;44.802;10.332;2023-05-20T06:27:06;18.08;;;8.40;;
78120;SDS011;67585;44.802;10.332;2023-05-20T06:29:31;21.30;;;9.63;;
78120;SDS011;67585;44.802;10.332;2023-05-20T06:31:57;20.95;;;8.90;;
78120;SDS011;67585;44.802;10.332;2023-05-20T06:34:22;21.75;;;9.23;;
78120;SDS011;67585;44.802;10.332;2023-05-20T06:36:47;21.45;;;8.20;;
78120;SDS011;67585;44.802;10.332;2023-05-20T06:39:13;23.98;;;9.35;;
78120;SDS011;67585;44.802;10.332;2023-05-20T06:41:38;21.15;;;8.77;;
78120;SDS011;67585;44.802;10.332;2023-05-20T06:44:04;25.60;;;9.38;;
78120;SDS011;67585;44.802;10.332;2023-05-20T06:46:30;17.08;;;8.95;;
78120;SDS011;67585;44.802;10.332;2023-05-20T06:48:56;19.95;;;8.38;;
78120;SDS011;67585;44.802;10.332;2023-05-20T06:51:21;18.92;;;8.20;;
78120;SDS011;67585;44.802;10.332;2023-05-20T06:53:47;22.58;;;8.80;;
78120;SDS011;67585;44.802;10.332;2023-05-20T06:56:12;16.23;;;7.75;;
78120;SDS011;67585;44.802;10.332;2023-05-20T06:58:37;24.02;;;8.80;;
78120;SDS011;67585;44.802;10.332;2023-05-20T07:01:03;21.52;;;9.63;;
78120;SDS011;67585;44.802;10.332;2023-05-20T07:03:28;20.08;;;7.38;;
78120;SDS011;67585;44.802;10.332;2023-05-20T07:05:54;16.35;;;7.55;;
78120;SDS011;67585;44.802;10.332;2023-05-20T07:08:19;18.55;;;9.13;;
78120;SDS011;67585;44.802;10.332;2023-05-20T07:10:45;19.65;;;8.23;;
78120;SDS011;67585;44.802;10.332;2023-05-20T07:13:10;19.15;;;9.13;;
78120;SDS011;67585;44.802;10.332;2023-05-20T07:15:36;21.90;;;9.00;;
78120;SDS011;67585;44.802;10.332;2023-05-20T07:18:02;23.63;;;8.55;;
78120;SDS011;67585;44.802;10.332;2023-05-20T07:20:27;26.02;;;9.00;;
78120;SDS011;67585;44.802;10.332;2023-05-20T07:22:53;23.27;;;9.68;;
78120;SDS011;67585;44.802;10.332;2023-05-20T07:25:18;19.80;;;8.75;;
78120;SDS011;67585;44.802;10.332;2023-05-20T07:27:43;23.30;;;8.65;;
78120;SDS011;67585;44.802;10.332;2023-05-20T07:30:10;18.50;;;9.02;;
78120;SDS011;67585;44.802;10.332;2023-05-20T07:32:35;18.98;;;8.05;;
78120;SDS011;67585;44.802;10.332;2023-05-20T07:35:01;18.70;;;8.52;;
78120;SDS011;67585;44.802;10.332;2023-05-20T07:37:26;20.30;;;9.02;;
78120;SDS011;67585;44.802;10.332;2023-05-20T07:39:52;21.45;;;8.30;;
78120;SDS011;67585;44.802;10.332;2023-05-20T07:42:17;17.80;;;7.68;;
78120;SDS011;67585;44.802;10.332;2023-05-20T07:44:44;19.65;;;7.43;;
78120;SDS011;67585;44.802;10.332;2023-05-20T07:47:09;23.23;;;6.90;;
78120;SDS011;67585;44.802;10.332;2023-05-20T07:49:35;17.58;;;6.70;;
78120;SDS011;67585;44.802;10.332;2023-05-20T07:52:00;18.23;;;6.57;;
78120;SDS011;67585;44.802;10.332;2023-05-20T07:54:25;17.48;;;7.25;;
78120;SDS011;67585;44.802;10.332;2023-05-20T07:56:51;24.98;;;8.30;;
78120;SDS011;67585;44.802;10.332;2023-05-20T07:59:17;18.48;;;7.60;;
78120;SDS011;67585;44.802;10.332;2023-05-20T08:01:42;17.92;;;6.70;;
78120;SDS011;67585;44.802;10.332;2023-05-20T08:04:08;18.63;;;7.10;;
78120;SDS011;67585;44.802;10.332;2023-05-20T08:06:33;21.80;;;7.20;;
78120;SDS011;67585;44.802;10.332;2023-05-20T08:08:59;22.00;;;7.13;;
78120;SDS011;67585;44.802;10.332;2023-05-20T08:11:25;19.10;;;5.95;;
78120;SDS011;67585;44.802;10.332;2023-05-20T08:13:52;18.15;;;6.28;;
78120;SDS011;67585;44.802;10.332;2023-05-20T08:16:17;19.58;;;7.45;;
78120;SDS011;67585;44.802;10.332;2023-05-20T08:18:45;17.58;;;6.90;;
78120;SDS011;67585;44.802;10.332;2023-05-20T08:21:10;19.25;;;7.95;;
78120;SDS011;67585;44.802;10.332;2023-05-20T08:23:36;18.85;;;7.95;;
78120;SDS011;67585;44.802;10.332;2023-05-20T08:26:01;19.38;;;6.68;;
78120;SDS011;67585;44.802;10.332;2023-05-20T08:28:27;19.67;;;7.43;;
78120;SDS011;67585;44.802;10.332;2023-05-20T08:30:53;18.33;;;7.03;;
78120;SDS011;67585;44.802;10.332;2023-05-20T08:33:19;16.85;;;7.05;;
78120;SDS011;67585;44.802;10.332;2023-05-20T08:35:45;20.33;;;8.25;;
78120;SDS011;67585;44.802;10.332;2023-05-20T08:38:11;21.25;;;8.05;;
78120;SDS011;67585;44.802;10.332;2023-05-20T08:40:37;17.88;;;7.15;;
78120;SDS011;67585;44.802;10.332;2023-05-20T08:43:02;18.02;;;7.78;;
78120;SDS011;67585;44.802;10.332;2023-05-20T08:45:30;22.35;;;7.05;;
78120;SDS011;67585;44.802;10.332;2023-05-20T08:47:56;23.52;;;7.50;;
78120;SDS011;67585;44.802;10.332;2023-05-20T08:50:22;22.20;;;8.10;;
78120;SDS011;67585;44.802;10.332;2023-05-20T08:52:47;22.67;;;7.82;;
78120;SDS011;67585;44.802;10.332;2023-05-20T08:57:51;15.52;;;6.97;;
78120;SDS011;67585;44.802;10.332;2023-05-20T09:00:19;19.98;;;6.93;;
78120;SDS011;67585;44.802;10.332;2023-05-20T09:02:47;17.00;;;6.40;;
78120;SDS011;67585;44.802;10.332;2023-05-20T09:05:13;18.02;;;7.38;;
78120;SDS011;67585;44.802;10.332;2023-05-20T09:07:39;25.25;;;8.05;;
78120;SDS011;67585;44.802;10.332;2023-05-20T09:10:06;18.20;;;7.88;;
78120;SDS011;67585;44.802;10.332;2023-05-20T09:12:32;18.38;;;7.00;;
78120;SDS011;67585;44.802;10.332;2023-05-20T09:14:57;19.17;;;7.70;;
78120;SDS011;67585;44.802;10.332;2023-05-20T09:17:23;17.42;;;6.88;;
78120;SDS011;67585;44.802;10.332;2023-05-20T09:19:49;22.27;;;8.18;;
78120;SDS011;67585;44.802;10.332;2023-05-20T09:22:21;19.85;;;8.23;;
78120;SDS011;67585;44.802;10.332;2023-05-20T09:24:50;20.92;;;9.32;;
78120;SDS011;67585;44.802;10.332;2023-05-20T09:27:16;23.45;;;9.30;;
78120;SDS011;67585;44.802;10.332;2023-05-20T09:29:42;20.55;;;8.82;;
78120;SDS011;67585;44.802;10.332;2023-05-20T09:32:08;20.90;;;8.48;;
78120;SDS011;67585;44.802;10.332;2023-05-20T09:34:36;19.70;;;8.77;;
78120;SDS011;67585;44.802;10.332;2023-05-20T09:37:01;21.17;;;9.90;;
78120;SDS011;67585;44.802;10.332;2023-05-20T09:39:29;19.27;;;7.40;;
78120;SDS011;67585;44.802;10.332;2023-05-20T09:42:02;22.40;;;8.00;;
78120;SDS011;67585;44.802;10.332;2023-05-20T09:44:34;20.05;;;7.78;;
78120;SDS011;67585;44.802;10.332;2023-05-20T09:47:00;17.15;;;7.18;;
78120;SDS011;67585;44.802;10.332;2023-05-20T09:49:27;20.40;;;8.68;;
78120;SDS011;67585;44.802;10.332;2023-05-20T09:51:53;18.95;;;7.32;;
78120;SDS011;67585;44.802;10.332;2023-05-20T09:54:21;20.25;;;7.63;;
78120;SDS011;67585;44.802;10.332;2023-05-20T09:56:48;23.10;;;8.55;;
78120;SDS011;67585;44.802;10.332;2023-05-20T09:59:14;18.90;;;8.45;;
78120;SDS011;67585;44.802;10.332;2023-05-20T10:01:41;16.27;;;9.13;;
78120;SDS011;67585;44.802;10.332;2023-05-20T10:04:07;16.58;;;6.57;;
78120;SDS011;67585;44.802;10.332;2023-05-20T10:14:54;19.48;;;7.75;;
78120;SDS011;67585;44.802;10.332;2023-05-20T10:17:31;18.30;;;7.47;;
78120;SDS011;67585;44.802;10.332;2023-05-20T10:20:05;17.88;;;7.25;;
78120;SDS011;67585;44.802;10.332;2023-05-20T10:22:35;25.85;;;7.38;;
78120;SDS011;67585;44.802;10.332;2023-05-20T10:25:04;17.77;;;7.15;;
78120;SDS011;67585;44.802;10.332;2023-05-20T10:28:02;17.90;;;7.68;;
78120;SDS011;67585;44.802;10.332;2023-05-20T10:30:27;19.00;;;7.40;;
78120;SDS011;67585;44.802;10.332;2023-05-20T10:32:54;21.60;;;8.25;;
78120;SDS011;67585;44.802;10.332;2023-05-20T10:35:26;20.73;;;8.20;;
78120;SDS011;67585;44.802;10.332;2023-05-20T10:37:53;21.10;;;9.55;;
78120;SDS011;67585;44.802;10.332;2023-05-20T10:42:45;19.55;;;8.98;;
78120;SDS011;67585;44.802;10.332;2023-05-20T10:45:23;21.58;;;8.10;;
78120;SDS011;67585;44.802;10.332;2023-05-20T10:47:55;21.15;;;8.93;;
78120;SDS011;67585;44.802;10.332;2023-05-20T10:50:41;21.58;;;7.75;;
78120;SDS011;67585;44.802;10.332;2023-05-20T10:53:13;19.95;;;9.32;;
78120;SDS011;67585;44.802;10.332;2023-05-20T10:55:39;21.42;;;9.88;;
78120;SDS011;67585;44.802;10.332;2023-05-20T10:58:06;23.35;;;9.77;;
78120;SDS011;67585;44.802;10.332;2023-05-20T11:00:35;21.58;;;8.63;;
78120;SDS011;67585;44.802;10.332;2023-05-20T11:03:01;20.20;;;8.45;;
78120;SDS011;67585;44.802;10.332;2023-05-20T11:05:29;20.88;;;8.35;;
78120;SDS011;67585;44.802;10.332;2023-05-20T11:07:59;19.23;;;7.85;;
78120;SDS011;67585;44.802;10.332;2023-05-20T11:10:26;20.80;;;8.30;;
78120;SDS011;67585;44.802;10.332;2023-05-20T11:12:52;24.70;;;9.10;;
78120;SDS011;67585;44.802;10.332;2023-05-20T11:15:17;26.30;;;7.97;;
78120;SDS011;67585;44.802;10.332;2023-05-20T11:20:19;22.55;;;9.68;;
78120;SDS011;67585;44.802;10.332;2023-05-20T11:22:52;20.95;;;8.45;;
78120;SDS011;67585;44.802;10.332;2023-05-20T11:25:18;24.63;;;10.25;;
78120;SDS011;67585;44.802;10.332;2023-05-20T11:27:44;27.08;;;10.00;;
78120;SDS011;67585;44.802;10.332;2023-05-20T11:30:13;22.73;;;9.43;;
78120;SDS011;67585;44.802;10.332;2023-05-20T11:33:01;22.63;;;8.90;;
78120;SDS011;67585;44.802;10.332;2023-05-20T11:35:28;22.20;;;9.98;;
78120;SDS011;67585;44.802;10.332;2023-05-20T11:38:02;22.17;;;9.98;;
78120;SDS011;67585;44.802;10.332;2023-05-20T11:40:31;23.65;;;8.52;;
78120;SDS011;67585;44.802;10.332;2023-05-20T11:43:00;23.15;;;9.65;;
78120;SDS011;67585;44.802;10.332;2023-05-20T11:45:26;20.42;;;9.60;;
78120;SDS011;67585;44.802;10.332;2023-05-20T11:48:01;21.63;;;9.43;;
78120;SDS011;67585;44.802;10.332;2023-05-20T11:50:32;23.75;;;8.90;;
78120;SDS011;67585;44.802;10.332;2023-05-20T11:52:59;25.05;;;9.20;;
78120;SDS011;67585;44.802;10.332;2023-05-20T11:55:27;21.00;;;8.57;;
78120;SDS011;67585;44.802;10.332;2023-05-20T11:57:53;23.05;;;9.85;;
78120;SDS011;67585;44.802;10.332;2023-05-20T12:00:19;23.35;;;9.27;;
78120;SDS011;67585;44.802;10.332;2023-05-20T12:02:44;23.73;;;8.55;;
78120;SDS011;67585;44.802;10.332;2023-05-20T12:05:10;22.27;;;8.70;;
78120;SDS011;67585;44.802;10.332;2023-05-20T12:07:36;20.80;;;9.27;;
78120;SDS011;67585;44.802;10.332;2023-05-20T12:10:02;20.25;;;9.07;;
78120;SDS011;67585;44.802;10.332;2023-05-20T12:12:28;19.15;;;8.73;;
78120;SDS011;67585;44.802;10.332;2023-05-20T12:14:53;26.27;;;10.35;;
78120;SDS011;67585;44.802;10.332;2023-05-20T12:17:18;30.23;;;10.60;;
78120;SDS011;67585;44.802;10.332;2023-05-20T12:19:46;20.17;;;9.27;;
78120;SDS011;67585;44.802;10.332;2023-05-20T12:22:12;22.40;;;8.90;;
78120;SDS011;67585;44.802;10.332;2023-05-20T12:24:37;23.60;;;9.18;;
78120;SDS011;67585;44.802;10.332;2023-05-20T12:27:02;22.48;;;8.93;;
78120;SDS011;67585;44.802;10.332;2023-05-20T12:29:30;23.00;;;10.80;;
78120;SDS011;67585;44.802;10.332;2023-05-20T12:31:56;23.45;;;9.88;;
78120;SDS011;67585;44.802;10.332;2023-05-20T12:34:21;26.40;;;10.18;;
78120;SDS011;67585;44.802;10.332;2023-05-20T12:36:46;25.88;;;10.05;;
78120;SDS011;67585;44.802;10.332;2023-05-20T12:39:12;18.73;;;9.00;;
78120;SDS011;67585;44.802;10.332;2023-05-20T12:41:39;22.02;;;9.65;;
78120;SDS011;67585;44.802;10.332;2023-05-20T12:44:06;20.92;;;9.20;;
78120;SDS011;67585;44.802;10.332;2023-05-20T12:46:31;27.80;;;10.38;;
78120;SDS011;67585;44.802;10.332;2023-05-20T12:48:56;27.70;;;10.30;;
78120;SDS011;67585;44.802;10.332;2023-05-20T12:51:22;24.20;;;10.70;;
78120;SDS011;67585;44.802;10.332;2023-05-20T12:53:47;22.13;;;8.90;;
78120;SDS011;67585;44.802;10.332;2023-05-20T12:56:13;26.38;;;10.05;;
78120;SDS011;67585;44.802;10.332;2023-05-20T12:58:38;26.95;;;9.07;;
78120;SDS011;67585;44.802;10.332;2023-05-20T13:01:03;22.40;;;8.63;;
78120;SDS011;67585;44.802;10.332;2023-05-20T13:03:29;23.35;;;10.10;;
78120;SDS011;67585;44.802;10.332;2023-05-20T13:05:55;22.15;;;9.13;;
78120;SDS011;67585;44.802;10.332;2023-05-20T13:08:20;24.00;;;10.32;;
78120;SDS011;67585;44.802;10.332;2023-05-20T13:10:45;19.77;;;8.80;;
78120;SDS011;67585;44.802;10.332;2023-05-20T13:13:11;24.48;;;10.77;;
78120;SDS011;67585;44.802;10.332;2023-05-20T13:15:37;20.30;;;9.30;;
78120;SDS011;67585;44.802;10.332;2023-05-20T13:18:03;25.27;;;10.23;;
78120;SDS011;67585;44.802;10.332;2023-05-20T13:20:30;21.05;;;9.88;;
78120;SDS011;67585;44.802;10.332;2023-05-20T13:22:56;22.83;;;10.30;;
78120;SDS011;67585;44.802;10.332;2023-05-20T13:25:22;22.70;;;9.77;;
78120;SDS011;67585;44.802;10.332;2023-05-20T13:27:47;24.83;;;10.38;;
78120;SDS011;67585;44.802;10.332;2023-05-20T13:30:12;24.05;;;9.65;;
78120;SDS011;67585;44.802;10.332;2023-05-20T13:32:38;20.77;;;9.32;;
78120;SDS011;67585;44.802;10.332;2023-05-20T13:35:03;23.33;;;9.30;;
78120;SDS011;67585;44.802;10.332;2023-05-20T13:37:29;20.10;;;9.30;;
78120;SDS011;67585;44.802;10.332;2023-05-20T13:39:54;24.33;;;11.40;;
78120;SDS011;67585;44.802;10.332;2023-05-20T13:42:20;23.25;;;10.13;;
78120;SDS011;67585;44.802;10.332;2023-05-20T13:44:45;21.70;;;10.07;;
78120;SDS011;67585;44.802;10.332;2023-05-20T13:47:11;22.60;;;9.55;;
78120;SDS011;67585;44.802;10.332;2023-05-20T13:49:36;24.48;;;11.18;;
78120;SDS011;67585;44.802;10.332;2023-05-20T13:52:02;21.88;;;10.18;;
78120;SDS011;67585;44.802;10.332;2023-05-20T13:54:27;25.70;;;10.50;;
78120;SDS011;67585;44.802;10.332;2023-05-20T13:56:53;24.40;;;9.63;;
78120;SDS011;67585;44.802;10.332;2023-05-20T13:59:18;26.33;;;11.15;;
78120;SDS011;67585;44.802;10.332;2023-05-20T14:01:44;25.13;;;10.90;;
78120;SDS011;67585;44.802;10.332;2023-05-20T14:04:10;27.85;;;11.55;;
78120;SDS011;67585;44.802;10.332;2023-05-20T14:06:36;25.30;;;12.13;;
78120;SDS011;67585;44.802;10.332;2023-05-20T14:09:02;28.05;;;12.98;;
78120;SDS011;67585;44.802;10.332;2023-05-20T14:11:28;26.35;;;11.80;;
78120;SDS011;67585;44.802;10.332;2023-05-20T14:13:53;26.40;;;12.02;;
78120;SDS011;67585;44.802;10.332;2023-05-20T14:16:18;29.27;;;12.50;;
78120;SDS011;67585;44.802;10.332;2023-05-20T14:18:44;27.30;;;11.85;;
78120;SDS011;67585;44.802;10.332;2023-05-20T14:21:10;29.15;;;11.60;;
78120;SDS011;67585;44.802;10.332;2023-05-20T14:23:35;27.70;;;11.70;;
78120;SDS011;67585;44.802;10.332;2023-05-20T14:26:08;27.15;;;11.27;;
78120;SDS011;67585;44.802;10.332;2023-05-20T14:28:34;26.60;;;14.10;;
78120;SDS011;67585;44.802;10.332;2023-05-20T14:30:59;25.70;;;12.27;;
78120;SDS011;67585;44.802;10.332;2023-05-20T14:33:25;29.30;;;11.82;;
78120;SDS011;67585;44.802;10.332;2023-05-20T14:35:50;28.13;;;11.15;;